Hauptseite
METAR-TAF:

METAR-TAF

Flughäfen :

Flughafen Ostrava

Ostrava, Tschechien

Breite: 49-41N, Länge: 018-07E, Höhe: 256 m

Beobachtung

Neuester Wetterbericht von vor 12 Minuten, um 15:30 UTC
Wind 2 kt aus unterschiedlichen Richtungen
Temperatur 18°C
Luftfeuchtigkeit 42%
Luftdruck 1021 hPa
Sichtweite 10 km oder mehr
keine Wolken unter 1500 m und keine Kumulonimbus oder Gewitterwolken

METAR: LKMT 151530Z VRB02KT CAVOK 18/05 Q1021 NOSIG

Zeit: 17:42 (15:42 UTC)

Prognose

Neuester Wetterbericht von vor 4 Stunden und 42 Minuten, um 11:00 UTC
Gültige Prognose vom 15 um 12 UTC bis 16 um 18 UTC
Wind 8 kt aus Südwest
Sichtweite 10 km oder mehr
keine Wolken unter 1500 m und keine Kumulonimbus oder Gewitterwolken
Zeitweise
vom 15 um 12 UTC bis 15 um 16 UTC
Wind 11 kt aus West/Südwest, Böen bis zu 22 kt

TAF: LKMT 151100Z 1512/1618 22008KT CAVOK TEMPO 1512/1516 25011G22KT

Wetterbeobachtungen und Prognosen von mehr als 4000 Flughäfen (METAR und TAF Bericht).

Die verfügbaren Stationen werden durch gelbe und rote Markierungen auf der Karte dargestellt.

Führen Sie die Maus auf sie, um den Namen der Station zu sehen.

Darauf klicken, um die Beobachtung von Wetterbeobachtungen und Prognosen zu sehen.

Um die Karte zu ändern : klicken Sie auf den grünen Tasten mit einem schwarzen Kreuz Zum Vergrößern, auf den grünen Button mit einem Gedankenstrich zu verkleinern, oder auf die grünen Pfeile für benachbarte Karten.


METAR-TAF: